Time;durP1;ratioP1;P1;durP2;ratioP2;P2;SDS_P1;SDS_P2;PMS_P1;PMS_P2;Temp;Humidity;BMP_temperature;BMP_pressure;BME280_temperature;BME280_humidity;BME280_pressure;Samples;Min_cycle;Max_cycle;Signal;HPM_P1;HPM_P2
2021/04/06 00:00:09;;;;;;;4.73;2.50;;;0.80;99.90;;;;;;5053145;28;20566;-54
2021/04/06 00:02:37;;;;;;;6.70;2.10;;;0.80;99.90;;;;;;5054077;28;20459;-53
2021/04/06 00:05:08;;;;;;;4.70;1.90;;;0.70;99.90;;;;;;5061015;28;20948;-53
2021/04/06 00:07:37;;;;;;;5.27;2.43;;;0.60;99.90;;;;;;5053156;28;20448;-53
2021/04/06 00:10:09;;;;;;;2.50;2.10;;;0.70;99.90;;;;;;5057477;28;20473;-53
2021/04/06 00:12:37;;;;;;;2.93;1.83;;;0.80;99.90;;;;;;5051577;28;20458;-53
2021/04/06 00:15:08;;;;;;;5.67;2.10;;;1.00;99.90;;;;;;5065439;28;20479;-53
2021/04/06 00:17:36;;;;;;;3.17;2.20;;;0.60;99.90;;;;;;5065153;28;20450;-51
2021/04/06 00:20:05;;;;;;;3.40;2.50;;;0.70;99.90;;;;;;5072819;28;20466;-52
2021/04/06 00:22:34;;;;;;;4.23;2.00;;;0.60;99.90;;;;;;5042295;28;20456;-54
2021/04/06 00:25:01;;;;;;;6.47;2.20;;;0.60;99.90;;;;;;5060290;28;20443;-52
2021/04/06 00:27:33;;;;;;;6.07;2.13;;;0.50;99.90;;;;;;5064131;28;20448;-52
2021/04/06 00:30:07;;;;;;;6.70;3.07;;;0.60;99.90;;;;;;5065647;28;20570;-52
2021/04/06 00:32:34;;;;;;;4.07;2.17;;;0.50;99.90;;;;;;5053381;28;20458;-53
2021/04/06 00:35:02;;;;;;;4.30;1.80;;;0.50;99.90;;;;;;5069160;28;21006;-54
2021/04/06 00:37:29;;;;;;;4.87;1.97;;;0.60;99.90;;;;;;5066704;28;21015;-52
2021/04/06 00:40:03;;;;;;;5.03;2.10;;;0.60;99.90;;;;;;5069027;28;20589;-53
2021/04/06 00:42:31;;;;;;;4.10;3.10;;;0.70;99.90;;;;;;5063717;28;20467;-53
2021/04/06 00:45:03;;;;;;;7.10;3.10;;;0.90;99.90;;;;;;5051310;28;20453;-52
2021/04/06 00:47:30;;;;;;;7.40;2.40;;;0.90;99.90;;;;;;5052361;28;20470;-53
2021/04/06 00:50:01;;;;;;;4.43;2.43;;;1.10;99.90;;;;;;5057970;28;20473;-54
2021/04/06 00:52:29;;;;;;;3.30;2.10;;;1.10;99.90;;;;;;5060249;28;20451;-53
2021/04/06 00:54:57;;;;;;;2.43;2.10;;;1.00;99.90;;;;;;5058305;28;20479;-53
2021/04/06 00:57:25;;;;;;;4.50;2.20;;;0.90;99.90;;;;;;5070254;28;20911;-53
2021/04/06 01:00:15;;;;;;;2.93;2.00;;;1.00;99.90;;;;;;5059659;28;20553;-52
2021/04/06 01:02:58;;;;;;;4.20;2.63;;;0.90;99.90;;;;;;5063033;28;20941;-52
2021/04/06 01:05:24;;;;;;;1.77;1.60;;;0.80;99.90;;;;;;5051718;28;20454;-52
2021/04/06 01:07:52;;;;;;;2.73;1.50;;;0.70;99.90;;;;;;5052210;28;20454;-54
2021/04/06 01:10:19;;;;;;;3.77;1.70;;;0.70;99.90;;;;;;5051890;28;20562;-52
2021/04/06 01:12:46;;;;;;;2.73;1.80;;;0.60;99.90;;;;;;5051136;28;20455;-52
2021/04/06 01:15:18;;;;;;;1.60;1.40;;;0.70;99.90;;;;;;5052597;28;20883;-51
2021/04/06 01:17:45;;;;;;;3.17;2.00;;;0.60;99.90;;;;;;5059018;28;20538;-54
2021/04/06 01:20:15;;;;;;;4.27;1.93;;;0.60;99.90;;;;;;5055653;28;20485;-53
2021/04/06 01:22:42;;;;;;;1.57;1.47;;;0.70;99.90;;;;;;5064965;28;20497;-53
2021/04/06 01:25:16;;;;;;;2.77;1.80;;;0.50;99.90;;;;;;5051812;28;20443;-53
2021/04/06 01:27:43;;;;;;;2.50;1.50;;;0.50;99.90;;;;;;5051735;28;20447;-53
2021/04/06 01:30:11;;;;;;;1.67;1.47;;;0.60;99.90;;;;;;5051410;28;20879;-53
2021/04/06 01:32:37;;;;;;;1.57;1.10;;;0.70;99.90;;;;;;5048706;28;20459;-53
2021/04/06 01:35:08;;;;;;;1.73;1.40;;;0.80;99.90;;;;;;5057040;28;20487;-53
2021/04/06 01:37:34;;;;;;;1.80;1.43;;;0.80;99.90;;;;;;5052881;28;20447;-53
2021/04/06 01:40:03;;;;;;;1.40;1.30;;;0.80;99.90;;;;;;5050779;28;20490;-53
2021/04/06 01:42:34;;;;;;;2.30;1.40;;;0.90;99.90;;;;;;5048860;28;20454;-53
2021/04/06 01:45:05;;;;;;;1.80;1.37;;;0.90;99.90;;;;;;5054934;28;20462;-53
2021/04/06 01:47:32;;;;;;;1.80;1.37;;;1.00;99.90;;;;;;5054287;28;20980;-53
2021/04/06 01:49:59;;;;;;;4.30;1.60;;;0.90;99.90;;;;;;5050899;28;21032;-53
2021/04/06 01:52:26;;;;;;;4.57;1.50;;;0.90;99.90;;;;;;5049910;28;20459;-52
2021/04/06 01:54:55;;;;;;;5.77;1.57;;;1.00;99.90;;;;;;5067822;28;20482;-53
2021/04/06 01:57:28;;;;;;;2.53;1.43;;;1.00;99.90;;;;;;5071186;28;20447;-53
2021/04/06 01:59:59;;;;;;;3.13;1.50;;;1.00;99.90;;;;;;5062616;28;20478;-53
2021/04/06 02:02:28;;;;;;;2.13;1.20;;;1.00;99.90;;;;;;5070781;28;20459;-53
2021/04/06 02:04:56;;;;;;;2.50;1.70;;;1.00;99.90;;;;;;5070226;28;20505;-52
2021/04/06 02:07:27;;;;;;;2.90;1.60;;;1.00;99.90;;;;;;5071162;28;20875;-52
2021/04/06 02:09:54;;;;;;;4.20;1.60;;;0.90;99.90;;;;;;5057995;28;20475;-53
2021/04/06 02:12:22;;;;;;;4.00;2.20;;;0.90;99.90;;;;;;5061792;28;20451;-53
2021/04/06 02:15:01;;;;;;;1.50;1.40;;;0.90;99.90;;;;;;5071915;28;20999;-54
2021/04/06 02:17:27;;;;;;;2.80;1.50;;;1.00;99.90;;;;;;5068724;28;20452;-54
2021/04/06 02:19:54;;;;;;;6.80;1.67;;;0.80;99.90;;;;;;5050061;28;20471;-53
2021/04/06 02:22:21;;;;;;;4.13;1.80;;;0.40;99.90;;;;;;5051803;28;20447;-54
2021/04/06 02:24:49;;;;;;;4.03;2.00;;;0.30;99.90;;;;;;5050322;28;20817;-53
2021/04/06 02:27:18;;;;;;;2.90;1.90;;;0.00;99.90;;;;;;5050330;28;20451;-54
2021/04/06 02:29:47;;;;;;;3.57;2.00;;;-0.10;99.90;;;;;;5053674;28;20481;-52
2021/04/06 02:32:16;;;;;;;3.30;1.93;;;-0.10;99.90;;;;;;5069884;28;20446;-53
2021/04/06 02:34:44;;;;;;;2.30;1.80;;;0.00;99.90;;;;;;5056479;28;20869;-54
2021/04/06 02:37:19;;;;;;;2.13;1.87;;;-0.10;99.90;;;;;;5051703;28;20451;-55
2021/04/06 02:39:46;;;;;;;3.63;2.10;;;0.00;99.90;;;;;;5049743;28;20467;-51
2021/04/06 02:42:24;;;;;;;3.67;1.83;;;0.20;99.90;;;;;;5053524;28;20448;-53
2021/04/06 02:44:55;;;;;;;2.30;1.70;;;0.40;99.90;;;;;;5031126;28;20527;-54
2021/04/06 02:47:24;;;;;;;2.50;1.73;;;0.30;99.90;;;;;;5050347;28;20454;-51
2021/04/06 02:49:51;;;;;;;2.10;1.80;;;0.30;99.90;;;;;;5049821;28;20468;-51
2021/04/06 02:52:17;;;;;;;2.40;1.60;;;0.30;99.90;;;;;;5068513;28;20443;-52
2021/04/06 02:54:44;;;;;;;3.30;1.80;;;0.40;99.90;;;;;;5069931;28;20560;-52
2021/04/06 02:57:25;;;;;;;4.73;1.97;;;0.30;99.90;;;;;;5069739;28;20817;-54
2021/04/06 02:59:52;;;;;;;2.23;1.60;;;0.40;99.90;;;;;;5043981;28;20471;-51
2021/04/06 03:02:19;;;;;;;3.50;1.90;;;0.40;99.90;;;;;;5061392;28;20705;-52
2021/04/06 03:04:48;;;;;;;3.63;1.87;;;0.40;99.90;;;;;;5050527;28;20455;-53
2021/04/06 03:07:22;;;;;;;2.50;2.10;;;0.40;99.90;;;;;;5053113;28;20505;-54
2021/04/06 03:09:50;;;;;;;2.70;1.83;;;0.20;99.90;;;;;;5042286;28;21011;-53
2021/04/06 03:12:17;;;;;;;3.43;2.10;;;0.20;99.90;;;;;;5070867;28;20452;-52
2021/04/06 03:14:47;;;;;;;2.57;2.10;;;0.30;99.90;;;;;;5051220;28;20869;-53
2021/04/06 03:17:14;;;;;;;2.40;1.80;;;0.30;99.90;;;;;;5043556;28;20455;-53
2021/04/06 03:19:40;;;;;;;4.13;2.10;;;0.30;99.90;;;;;;5053258;28;20471;-52
2021/04/06 03:22:08;;;;;;;5.20;2.37;;;0.20;99.90;;;;;;5050679;28;20817;-52
2021/04/06 03:24:37;;;;;;;3.47;1.90;;;0.20;99.90;;;;;;5050281;28;20470;-54
2021/04/06 03:27:05;;;;;;;3.60;2.37;;;0.20;99.90;;;;;;5053392;28;20451;-52
2021/04/06 03:29:33;;;;;;;3.27;2.20;;;0.20;99.90;;;;;;5052478;28;20494;-54
2021/04/06 03:32:00;;;;;;;3.10;2.57;;;0.20;99.90;;;;;;5053416;28;20509;-53
2021/04/06 03:34:35;;;;;;;5.77;3.10;;;0.20;99.90;;;;;;5053336;28;20483;-54
2021/04/06 03:37:04;;;;;;;5.17;2.80;;;0.10;99.90;;;;;;5049165;28;20450;-53
2021/04/06 03:39:36;;;;;;;6.13;2.50;;;0.10;99.90;;;;;;5052612;28;21343;-52
2021/04/06 03:42:04;;;;;;;3.80;2.47;;;0.00;99.90;;;;;;5053680;28;20455;-53
2021/04/06 03:44:32;;;;;;;6.20;2.43;;;0.10;99.90;;;;;;5055197;28;20462;-54
2021/04/06 03:46:59;;;;;;;3.10;2.10;;;0.00;99.90;;;;;;5033230;28;20449;-51
2021/04/06 03:49:27;;;;;;;3.50;2.20;;;0.00;99.90;;;;;;5049938;28;20533;-51
2021/04/06 03:51:56;;;;;;;4.90;2.47;;;0.00;99.90;;;;;;5054647;28;20601;-51
2021/04/06 03:54:34;;;;;;;4.23;2.53;;;0.10;99.90;;;;;;5052787;28;20476;-53
2021/04/06 03:57:01;;;;;;;5.57;2.57;;;0.00;99.90;;;;;;5047099;28;20520;-52
2021/04/06 03:59:30;;;;;;;3.97;2.60;;;-0.10;99.90;;;;;;5052827;28;20476;-58
2021/04/06 04:01:57;;;;;;;2.77;2.13;;;0.00;99.90;;;;;;5054068;28;20957;-54
2021/04/06 04:04:24;;;;;;;3.13;2.63;;;0.10;99.90;;;;;;5063610;28;20443;-52
2021/04/06 04:06:50;;;;;;;2.80;2.17;;;0.00;99.90;;;;;;5087201;28;20450;-53
2021/04/06 04:09:16;;;;;;;3.20;2.40;;;0.10;99.90;;;;;;5071486;28;20470;-51
2021/04/06 04:11:44;;;;;;;4.93;2.80;;;0.10;99.90;;;;;;5073144;28;20596;-53
2021/04/06 04:14:10;;;;;;;8.53;4.23;;;0.00;99.90;;;;;;5069350;28;20498;-52
2021/04/06 04:16:38;;;;;;;6.87;4.50;;;-0.10;99.90;;;;;;5053005;28;20452;-52
2021/04/06 04:19:05;;;;;;;6.03;3.60;;;-0.10;99.90;;;;;;5057184;28;20501;-52
2021/04/06 04:21:31;;;;;;;4.63;3.40;;;0.00;99.90;;;;;;5055730;28;20454;-53
2021/04/06 04:23:58;;;;;;;7.90;3.70;;;0.10;99.90;;;;;;5055092;28;20455;-53
2021/04/06 04:26:24;;;;;;;6.30;3.93;;;0.20;99.90;;;;;;5054852;28;20823;-53
2021/04/06 04:28:51;;;;;;;9.73;4.53;;;0.30;99.90;;;;;;5054861;28;20475;-52
2021/04/06 04:31:18;;;;;;;9.10;5.27;;;0.30;99.90;;;;;;5066454;22;20508;-49
2021/04/06 04:33:44;;;;;;;8.40;5.87;;;0.40;99.90;;;;;;5038215;28;20478;-49
2021/04/06 04:36:11;;;;;;;8.63;4.50;;;0.40;99.90;;;;;;5033999;28;20837;-49
2021/04/06 04:38:37;;;;;;;7.33;3.90;;;0.10;99.90;;;;;;5040151;28;21020;-49
2021/04/06 04:41:04;;;;;;;6.87;4.27;;;0.10;99.90;;;;;;5018007;28;20474;-50
2021/04/06 04:43:30;;;;;;;6.30;3.93;;;0.20;99.90;;;;;;5012556;28;20457;-50
2021/04/06 04:45:58;;;;;;;10.43;3.90;;;0.20;99.90;;;;;;5026702;28;20449;-50
2021/04/06 04:48:24;;;;;;;6.37;3.40;;;0.10;99.90;;;;;;5003030;28;20466;-49
2021/04/06 04:50:50;;;;;;;8.00;4.10;;;0.00;99.90;;;;;;4994000;28;20477;-49
2021/04/06 04:53:17;;;;;;;7.77;4.43;;;-0.10;99.90;;;;;;5018645;28;21002;-49
2021/04/06 04:55:44;;;;;;;8.90;4.70;;;-0.10;99.90;;;;;;5023706;28;20485;-49
2021/04/06 04:58:10;;;;;;;8.17;4.43;;;0.00;99.90;;;;;;5009772;28;20500;-50
2021/04/06 05:00:37;;;;;;;13.73;4.90;;;0.00;99.90;;;;;;4993419;28;20488;-48
2021/04/06 05:03:05;;;;;;;8.23;4.63;;;0.00;99.90;;;;;;5007309;28;20842;-50
2021/04/06 05:05:32;;;;;;;7.77;4.43;;;0.00;99.90;;;;;;5011956;28;20453;-50
2021/04/06 05:07:58;;;;;;;11.13;5.10;;;-0.10;99.90;;;;;;5009566;28;20520;-48
2021/04/06 05:10:25;;;;;;;7.87;4.87;;;-0.10;99.90;;;;;;5012152;28;20477;-48
2021/04/06 05:12:51;;;;;;;9.23;4.97;;;-0.10;99.90;;;;;;5011566;28;20461;-49
2021/04/06 05:15:18;;;;;;;10.10;4.27;;;-0.10;99.90;;;;;;5010318;28;20492;-49
2021/04/06 05:17:45;;;;;;;7.63;4.57;;;-0.10;99.90;;;;;;5011917;28;20462;-49
2021/04/06 05:20:13;;;;;;;6.83;3.70;;;0.10;99.90;;;;;;4995744;28;20893;-49
2021/04/06 05:22:40;;;;;;;9.93;4.90;;;0.10;99.90;;;;;;5006358;28;20509;-50
2021/04/06 05:25:07;;;;;;;8.70;4.80;;;0.20;99.90;;;;;;5010454;28;20452;-49
2021/04/06 05:27:34;;;;;;;9.20;5.30;;;0.30;99.90;;;;;;5007004;28;20453;-49
2021/04/06 05:30:01;;;;;;;8.87;5.20;;;0.40;99.90;;;;;;5011069;28;20480;-50
2021/04/06 05:32:27;;;;;;;7.60;4.60;;;0.50;99.90;;;;;;5012200;28;20827;-49
2021/04/06 05:34:54;;;;;;;6.00;4.40;;;0.50;99.90;;;;;;5011651;28;20504;-49
2021/04/06 05:37:21;;;;;;;10.00;4.97;;;0.60;99.90;;;;;;5009323;28;20454;-49
2021/04/06 05:39:48;;;;;;;9.07;4.40;;;0.50;99.90;;;;;;5010195;28;20473;-49
2021/04/06 05:42:15;;;;;;;7.73;4.23;;;0.50;99.90;;;;;;5011515;28;20450;-49
2021/04/06 05:44:43;;;;;;;6.27;3.73;;;0.80;99.90;;;;;;5009864;28;20853;-48
2021/04/06 05:47:15;;;;;;;7.70;4.47;;;0.90;99.90;;;;;;5010174;28;20472;-48
2021/04/06 05:49:42;;;;;;;9.07;4.57;;;1.20;99.90;;;;;;5002345;28;20532;-48
2021/04/06 05:52:09;;;;;;;9.07;5.40;;;1.80;99.90;;;;;;5001111;28;20541;-49
2021/04/06 05:54:40;;;;;;;10.30;5.57;;;2.50;99.90;;;;;;5011105;28;20481;-49
2021/04/06 05:57:06;;;;;;;8.60;4.37;;;2.80;99.90;;;;;;4998884;28;20448;-49
2021/04/06 05:59:36;;;;;;;5.03;3.97;;;3.30;99.90;;;;;;5011389;28;20455;-49
2021/04/06 06:02:03;;;;;;;6.87;3.43;;;4.00;99.90;;;;;;5004754;28;20467;-49
2021/04/06 06:04:30;;;;;;;3.90;3.20;;;4.90;99.90;;;;;;5003946;28;20453;-52
2021/04/06 06:06:56;;;;;;;3.10;2.80;;;5.80;99.90;;;;;;5011009;28;20455;-51
2021/04/06 06:09:30;;;;;;;5.73;3.67;;;6.60;99.90;;;;;;5024028;28;20457;-52
2021/04/06 06:11:59;;;;;;;6.00;3.33;;;7.30;99.90;;;;;;5010384;28;20956;-51
2021/04/06 06:14:27;;;;;;;4.27;3.40;;;7.90;99.90;;;;;;5010975;28;20997;-51
2021/04/06 06:16:54;;;;;;;6.23;4.10;;;8.40;99.90;;;;;;5010469;28;20941;-51
2021/04/06 06:19:21;;;;;;;3.83;3.00;;;9.00;99.90;;;;;;5010865;28;20450;-48
2021/04/06 06:21:49;;;;;;;5.07;3.20;;;9.10;99.90;;;;;;5010567;28;20504;-48
2021/04/06 06:24:24;;;;;;;3.47;3.00;;;8.70;99.90;;;;;;5002595;28;20522;-48
2021/04/06 06:26:52;;;;;;;3.57;3.00;;;7.90;99.90;;;;;;5003674;28;20469;-49
2021/04/06 06:29:21;;;;;;;4.43;3.27;;;7.50;99.90;;;;;;5006711;28;20454;-48
2021/04/06 06:31:49;;;;;;;4.43;3.43;;;6.90;99.90;;;;;;5022893;28;20456;-48
2021/04/06 06:34:33;;;;;;;5.90;3.47;;;6.40;99.90;;;;;;5030127;28;20502;-49
2021/04/06 06:37:12;;;;;;;3.50;3.17;;;5.90;99.90;;;;;;4991262;28;20450;-48
2021/04/06 06:39:41;;;;;;;4.43;3.17;;;5.10;99.90;;;;;;4991245;28;20477;-49
2021/04/06 06:42:10;;;;;;;6.07;3.57;;;4.40;99.90;;;;;;4993303;28;20453;-48
2021/04/06 06:44:38;;;;;;;3.37;2.90;;;3.90;99.90;;;;;;5019508;28;20482;-47
2021/04/06 06:47:09;;;;;;;4.13;3.17;;;3.70;99.90;;;;;;5013836;28;20445;-48
2021/04/06 06:49:40;;;;;;;5.43;3.67;;;3.30;99.90;;;;;;5005134;28;20448;-49
2021/04/06 06:52:27;;;;;;;5.00;3.85;;;3.30;99.90;;;;;;5016269;28;20481;-48
2021/04/06 06:54:56;;;;;;;4.87;3.90;;;4.70;99.90;;;;;;5014100;28;20221;-50
2021/04/06 06:57:28;;;;;;;4.70;3.50;;;6.80;99.90;;;;;;5029244;28;20454;-49
2021/04/06 07:00:06;;;;;;;3.60;3.07;;;8.40;99.90;;;;;;5024507;28;21019;-49
2021/04/06 07:02:32;;;;;;;2.90;2.60;;;9.90;99.90;;;;;;5014114;28;20476;-50
2021/04/06 07:05:14;;;;;;;5.13;2.17;;;10.90;99.90;;;;;;5013802;28;20951;-50
2021/04/06 07:07:59;;;;;;;2.40;2.20;;;11.70;97.20;;;;;;5013115;28;20449;-50
2021/04/06 07:10:27;;;;;;;4.07;3.00;;;12.20;93.70;;;;;;5014115;28;20476;-50
2021/04/06 07:13:08;;;;;;;3.07;2.70;;;12.40;91.60;;;;;;5013846;28;20463;-50
2021/04/06 07:15:40;;;;;;;3.60;2.90;;;12.40;93.40;;;;;;5013561;28;20489;-50
2021/04/06 07:18:11;;;;;;;4.30;2.90;;;11.80;94.10;;;;;;5026248;28;20464;-51
2021/04/06 07:20:40;;;;;;;3.23;2.93;;;12.80;92.10;;;;;;5031069;28;21035;-50
2021/04/06 07:23:12;;;;;;;3.80;3.47;;;13.40;90.40;;;;;;5013695;28;20551;-51
2021/04/06 07:25:42;;;;;;;4.93;3.40;;;13.40;89.40;;;;;;5015700;28;20450;-51
2021/04/06 07:28:09;;;;;;;5.30;3.60;;;13.60;89.10;;;;;;5004917;28;20955;-51
2021/04/06 07:30:37;;;;;;;4.10;3.70;;;13.40;90.10;;;;;;5006750;28;20482;-51
2021/04/06 07:33:06;;;;;;;4.30;3.90;;;13.00;88.40;;;;;;5010288;28;20453;-50
2021/04/06 07:35:33;;;;;;;4.17;3.27;;;12.70;88.30;;;;;;5011650;28;20485;-50
2021/04/06 07:37:59;;;;;;;5.40;3.70;;;13.00;88.60;;;;;;5005522;28;20493;-50
2021/04/06 07:40:27;;;;;;;4.10;3.70;;;12.10;88.40;;;;;;4993716;28;20532;-50
2021/04/06 07:42:54;;;;;;;7.10;3.30;;;11.50;90.00;;;;;;4993765;28;20465;-51
2021/04/06 07:45:44;;;;;;;4.33;3.60;;;11.60;90.10;;;;;;4994373;28;20940;-52
2021/04/06 07:48:12;;;;;;;6.57;3.50;;;10.50;91.20;;;;;;4993565;28;20822;-51
2021/04/06 07:50:42;;;;;;;5.87;4.20;;;11.40;90.60;;;;;;4993641;28;20477;-50
2021/04/06 07:53:29;;;;;;;4.60;3.67;;;11.00;90.00;;;;;;5012083;28;20449;-50
2021/04/06 07:55:57;;;;;;;4.73;3.73;;;11.00;91.50;;;;;;4995400;28;20482;-49
2021/04/06 07:58:48;;;;;;;5.40;4.10;;;11.80;90.50;;;;;;4993499;28;20454;-50
2021/04/06 08:01:17;;;;;;;5.23;3.43;;;12.00;90.00;;;;;;4978747;28;20481;-50
2021/04/06 08:04:07;;;;;;;4.10;3.70;;;12.00;88.90;;;;;;4993381;28;20520;-50
2021/04/06 08:06:45;;;;;;;4.47;3.20;;;12.00;86.20;;;;;;4993368;28;20442;-49
2021/04/06 08:09:48;;;;;;;5.23;3.00;;;11.40;88.60;;;;;;4995828;28;20452;-49
2021/04/06 08:12:17;;;;;;;5.53;3.10;;;11.50;90.20;;;;;;4993333;28;20450;-50
2021/04/06 08:14:45;;;;;;;4.27;2.70;;;11.80;87.40;;;;;;4992986;28;20485;-50
2021/04/06 08:17:55;;;;;;;4.00;3.13;;;11.20;85.40;;;;;;4993280;28;20454;-49
2021/04/06 08:20:43;;;;;;;9.40;3.47;;;10.00;87.70;;;;;;4993428;28;20470;-49
2021/04/06 08:23:13;;;;;;;6.47;3.10;;;9.10;91.70;;;;;;4993463;28;20461;-50
2021/04/06 08:25:57;;;;;;;4.47;2.80;;;8.70;91.60;;;;;;4993571;28;20518;-49
2021/04/06 08:28:47;;;;;;;7.83;3.00;;;9.20;92.30;;;;;;5007817;28;20816;-49
2021/04/06 08:31:31;;;;;;;3.47;2.97;;;9.80;92.20;;;;;;5012250;28;20567;-49
2021/04/06 08:34:27;;;;;;;3.87;3.03;;;10.70;86.20;;;;;;5013016;28;20460;-49
2021/04/06 08:37:08;;;;;;;4.57;3.00;;;10.80;89.10;;;;;;5012647;28;20482;-49
2021/04/06 08:39:39;;;;;;;6.07;3.20;;;11.50;89.00;;;;;;5012549;28;20971;-49
2021/04/06 08:42:08;;;;;;;5.87;3.67;;;11.90;88.60;;;;;;5012589;28;20453;-49
2021/04/06 08:44:37;;;;;;;4.13;3.40;;;12.40;85.40;;;;;;5013818;28;20468;-49
2021/04/06 08:47:05;;;;;;;4.90;3.20;;;12.30;86.20;;;;;;5012361;28;20939;-49
2021/04/06 08:49:41;;;;;;;4.43;2.77;;;12.50;84.50;;;;;;5012520;28;20732;-49
2021/04/06 08:52:12;;;;;;;12.30;2.90;;;12.70;79.60;;;;;;5012418;28;20477;-50
2021/04/06 08:54:39;;;;;;;4.47;3.00;;;12.20;78.10;;;;;;4992700;28;20485;-49
2021/04/06 08:57:07;;;;;;;5.43;3.57;;;12.00;76.90;;;;;;4992672;28;20453;-49
2021/04/06 08:59:37;;;;;;;2.77;2.50;;;12.40;78.90;;;;;;4992639;28;20450;-49
2021/04/06 09:02:05;;;;;;;3.77;2.70;;;12.50;74.80;;;;;;4998194;28;20543;-49
2021/04/06 09:04:36;;;;;;;5.40;3.10;;;12.50;76.20;;;;;;5031066;28;20448;-49
2021/04/06 09:07:16;;;;;;;7.00;3.10;;;13.20;77.90;;;;;;5025799;28;20449;-49
2021/04/06 09:09:43;;;;;;;4.50;2.87;;;13.10;77.70;;;;;;5012391;28;20602;-49
2021/04/06 09:12:10;;;;;;;3.80;2.80;;;12.40;73.00;;;;;;5011416;28;20828;-49
2021/04/06 09:14:39;;;;;;;4.53;3.00;;;12.30;74.10;;;;;;4993857;28;20446;-49
2021/04/06 09:17:05;;;;;;;3.17;2.73;;;12.30;72.80;;;;;;4992612;28;20458;-49
2021/04/06 09:19:36;;;;;;;4.00;3.00;;;10.80;74.90;;;;;;4997713;28;20489;-49
2021/04/06 09:22:06;;;;;;;6.33;2.90;;;10.10;79.70;;;;;;5031714;28;20220;-49
2021/04/06 09:24:34;;;;;;;2.87;2.50;;;10.00;79.10;;;;;;5011792;28;20448;-49
2021/04/06 09:27:01;;;;;;;3.77;2.97;;;10.90;78.60;;;;;;5011262;28;20463;-49
2021/04/06 09:29:29;;;;;;;3.37;3.03;;;11.70;81.80;;;;;;5010926;28;20448;-48
2021/04/06 09:31:58;;;;;;;6.00;2.90;;;11.90;72.80;;;;;;5011632;28;20467;-50
2021/04/06 09:34:27;;;;;;;4.13;2.73;;;12.00;75.50;;;;;;5008909;28;20457;-49
2021/04/06 09:36:55;;;;;;;4.63;2.90;;;11.80;72.20;;;;;;4999400;28;20914;-49
2021/04/06 09:39:23;;;;;;;4.20;2.80;;;11.50;74.80;;;;;;5027444;28;20459;-49
2021/04/06 09:41:51;;;;;;;5.10;2.80;;;11.60;74.70;;;;;;5030611;28;20471;-49
2021/04/06 09:44:20;;;;;;;4.40;2.90;;;11.50;73.70;;;;;;5002583;28;20457;-49
2021/04/06 09:46:48;;;;;;;3.13;2.87;;;10.60;76.60;;;;;;4991462;28;20449;-49
2021/04/06 09:49:16;;;;;;;5.00;3.30;;;11.10;74.80;;;;;;4991552;28;20457;-48
2021/04/06 09:51:45;;;;;;;5.03;2.90;;;11.80;74.70;;;;;;4991441;28;20478;-48
2021/04/06 09:54:13;;;;;;;3.77;2.80;;;11.40;72.10;;;;;;4992399;28;20458;-49
2021/04/06 09:56:40;;;;;;;4.80;2.57;;;11.80;74.10;;;;;;5009423;28;20488;-48
2021/04/06 09:59:08;;;;;;;4.77;2.80;;;11.00;72.10;;;;;;4998792;28;20454;-49
2021/04/06 10:01:36;;;;;;;2.90;2.37;;;11.50;76.20;;;;;;5010766;28;20476;-49
2021/04/06 10:04:03;;;;;;;3.03;2.70;;;11.30;74.90;;;;;;5009550;28;20454;-49
2021/04/06 10:06:35;;;;;;;5.40;3.03;;;10.80;74.60;;;;;;5020366;28;20505;-49
2021/04/06 10:09:20;;;;;;;3.00;2.53;;;10.10;73.70;;;;;;5009277;28;20476;-48
2021/04/06 10:11:47;;;;;;;4.23;2.20;;;8.90;81.10;;;;;;5003217;28;20456;-49
2021/04/06 10:14:15;;;;;;;5.73;2.30;;;9.40;79.00;;;;;;5011704;28;20457;-48
2021/04/06 10:16:42;;;;;;;2.87;2.30;;;9.50;78.50;;;;;;5010289;28;20487;-49
2021/04/06 10:19:20;;;;;;;4.10;2.43;;;9.90;79.90;;;;;;5010495;28;20805;-49
2021/04/06 10:22:01;;;;;;;4.90;2.47;;;10.40;75.90;;;;;;5006091;28;20450;-49
2021/04/06 10:24:29;;;;;;;5.20;2.60;;;10.00;73.30;;;;;;4999875;28;20453;-47
2021/04/06 10:27:07;;;;;;;5.03;2.40;;;10.20;73.90;;;;;;4990729;28;20453;-48
2021/04/06 10:29:38;;;;;;;4.63;2.33;;;10.40;76.40;;;;;;5011137;28;20511;-48
2021/04/06 10:32:06;;;;;;;4.10;2.50;;;10.00;76.60;;;;;;5010341;28;20451;-48
2021/04/06 10:34:33;;;;;;;2.63;2.10;;;9.70;78.60;;;;;;5010317;28;20455;-49
2021/04/06 10:37:03;;;;;;;4.67;2.20;;;9.60;78.60;;;;;;5010282;28;20454;-49
2021/04/06 10:39:38;;;;;;;2.77;1.90;;;9.20;79.90;;;;;;5074962;22;20510;-49
2021/04/06 10:42:07;;;;;;;2.90;1.83;;;8.50;73.30;;;;;;5069814;28;20442;-49
2021/04/06 10:44:35;;;;;;;3.60;1.70;;;8.30;79.10;;;;;;5062353;28;20459;-49
2021/04/06 10:47:01;;;;;;;3.33;1.97;;;8.10;78.60;;;;;;5055017;28;20447;-49
2021/04/06 10:49:28;;;;;;;1.83;1.73;;;7.60;79.00;;;;;;5035760;28;20888;-51
2021/04/06 10:51:57;;;;;;;1.63;1.27;;;6.80;80.50;;;;;;5030512;28;20448;-51
2021/04/06 10:54:23;;;;;;;2.00;1.80;;;6.80;85.70;;;;;;5045796;28;20458;-51
2021/04/06 10:56:52;;;;;;;2.70;1.67;;;6.90;83.90;;;;;;5036553;28;20568;-51
2021/04/06 10:59:28;;;;;;;5.93;1.83;;;7.00;80.50;;;;;;5029630;28;20476;-51
2021/04/06 11:01:57;;;;;;;2.30;1.90;;;7.60;77.30;;;;;;5030954;28;20445;-52
2021/04/06 11:04:25;;;;;;;2.80;2.27;;;8.70;82.00;;;;;;5038201;28;20937;-49
2021/04/06 11:06:57;;;;;;;2.10;1.60;;;9.30;77.00;;;;;;5048735;28;20455;-50
2021/04/06 11:09:26;;;;;;;2.43;1.80;;;9.00;81.80;;;;;;5049137;28;20479;-49
2021/04/06 11:11:55;;;;;;;2.93;1.97;;;8.30;80.10;;;;;;5050020;28;20448;-49
2021/04/06 11:14:23;;;;;;;1.73;1.63;;;8.10;83.50;;;;;;5049854;28;20451;-49
2021/04/06 11:16:50;;;;;;;3.13;1.60;;;7.90;77.20;;;;;;5049435;28;20514;-49
2021/04/06 11:19:23;;;;;;;1.80;1.70;;;7.70;85.50;;;;;;5044025;28;21043;-48
2021/04/06 11:21:51;;;;;;;7.70;1.97;;;7.60;81.70;;;;;;5049200;28;20462;-49
2021/04/06 11:24:22;;;;;;;2.77;1.57;;;7.60;84.30;;;;;;5049475;28;20454;-49
2021/04/06 11:26:49;;;;;;;3.10;1.70;;;7.10;79.30;;;;;;5049559;28;20497;-49
2021/04/06 11:29:19;;;;;;;1.93;1.40;;;6.60;83.40;;;;;;5047505;28;20525;-51
2021/04/06 11:31:47;;;;;;;2.40;1.77;;;6.60;88.10;;;;;;5053237;28;20467;-49
2021/04/06 11:34:15;;;;;;;3.67;2.27;;;6.40;87.60;;;;;;5053040;28;20450;-51
2021/04/06 11:36:44;;;;;;;2.47;1.60;;;6.00;88.50;;;;;;5052772;28;20483;-52
2021/04/06 11:39:12;;;;;;;4.83;1.67;;;6.00;89.10;;;;;;5053108;28;20482;-52
2021/04/06 11:41:40;;;;;;;2.80;1.73;;;6.10;89.10;;;;;;5052932;28;20504;-51
2021/04/06 11:44:07;;;;;;;2.40;1.60;;;6.20;88.10;;;;;;5053137;28;20452;-51
2021/04/06 11:46:34;;;;;;;3.43;1.20;;;6.30;87.40;;;;;;5044773;28;20448;-51
2021/04/06 11:49:01;;;;;;;1.40;1.30;;;6.50;85.00;;;;;;5032857;28;20472;-51
2021/04/06 11:51:27;;;;;;;1.73;1.37;;;6.60;86.30;;;;;;5032905;28;20946;-51
2021/04/06 11:53:55;;;;;;;2.33;1.20;;;7.00;86.80;;;;;;5032776;28;20459;-51
2021/04/06 11:56:22;;;;;;;4.33;1.70;;;6.90;84.20;;;;;;5032598;28;20491;-51
2021/04/06 11:58:48;;;;;;;2.33;1.60;;;7.10;85.30;;;;;;5052291;28;20474;-51
2021/04/06 12:01:15;;;;;;;4.80;1.90;;;7.00;83.70;;;;;;5052200;28;20481;-51
2021/04/06 12:03:42;;;;;;;3.53;1.90;;;7.00;82.10;;;;;;5052602;28;20878;-50
2021/04/06 12:06:08;;;;;;;2.30;1.90;;;7.30;85.30;;;;;;5052518;28;20440;-52
2021/04/06 12:08:35;;;;;;;4.53;2.40;;;7.50;80.30;;;;;;5052252;28;20547;-51
2021/04/06 12:11:03;;;;;;;2.90;1.50;;;7.90;79.00;;;;;;5052337;28;20505;-50
2021/04/06 12:13:29;;;;;;;2.10;1.60;;;8.10;82.20;;;;;;5050625;28;20455;-51
2021/04/06 12:15:56;;;;;;;2.30;1.92;;;8.00;79.20;;;;;;5051611;28;20448;-51
2021/04/06 12:18:22;;;;;;;1.97;1.70;;;7.80;80.10;;;;;;5052998;28;20232;-51
2021/04/06 12:20:49;;;;;;;2.57;1.70;;;7.60;79.60;;;;;;5052656;28;20952;-51
2021/04/06 12:23:15;;;;;;;1.80;1.70;;;7.20;80.80;;;;;;5045437;28;20821;-51
2021/04/06 12:25:42;;;;;;;2.70;1.63;;;7.20;81.80;;;;;;5032848;28;20891;-51
2021/04/06 12:28:09;;;;;;;3.57;1.60;;;7.10;81.00;;;;;;5032999;28;20526;-51
2021/04/06 12:30:36;;;;;;;1.70;1.50;;;7.00;78.00;;;;;;5033915;28;20461;-50
2021/04/06 12:33:02;;;;;;;4.00;2.00;;;7.00;80.20;;;;;;5032925;28;20456;-51
2021/04/06 12:35:29;;;;;;;3.83;1.80;;;7.00;79.10;;;;;;5032351;28;21009;-51
2021/04/06 12:37:57;;;;;;;2.67;1.93;;;7.10;79.30;;;;;;5044531;28;20460;-51
2021/04/06 12:40:24;;;;;;;2.60;1.90;;;7.10;79.70;;;;;;5052559;28;20497;-52
2021/04/06 12:42:50;;;;;;;3.67;1.50;;;7.00;80.00;;;;;;5052358;28;20501;-51
2021/04/06 12:45:19;;;;;;;2.37;1.70;;;7.20;77.00;;;;;;5052218;28;20454;-51
2021/04/06 12:47:45;;;;;;;2.00;1.60;;;7.30;76.90;;;;;;5050736;28;20464;-51
2021/04/06 12:50:13;;;;;;;2.27;1.50;;;7.50;81.30;;;;;;5051760;28;20957;-51
2021/04/06 12:52:39;;;;;;;2.27;1.73;;;7.40;76.60;;;;;;5052137;28;20448;-51
2021/04/06 12:55:07;;;;;;;1.70;1.60;;;7.50;76.80;;;;;;5051985;28;20479;-51
2021/04/06 12:57:33;;;;;;;2.10;1.47;;;7.20;79.50;;;;;;5034477;28;20968;-51
2021/04/06 13:00:00;;;;;;;3.00;1.77;;;6.90;78.90;;;;;;5032224;28;20465;-51
2021/04/06 13:02:27;;;;;;;4.13;2.00;;;6.50;84.30;;;;;;5032198;28;20523;-51
2021/04/06 13:04:54;;;;;;;3.50;1.63;;;6.00;88.20;;;;;;5033255;28;20999;-50